sensor_id;sensor_type;location;lat;lon;timestamp;P1;durP1;ratioP1;P2;durP2;ratioP2
64641;SDS011;59936;51.490;5.436;2022-11-14T00:00:48;31.83;;;18.53;;
64641;SDS011;59936;51.490;5.436;2022-11-14T00:05:52;29.85;;;18.63;;
64641;SDS011;59936;51.490;5.436;2022-11-14T00:10:54;27.23;;;16.58;;
64641;SDS011;59936;51.490;5.436;2022-11-14T00:15:56;28.40;;;17.73;;
64641;SDS011;59936;51.490;5.436;2022-11-14T00:20:59;29.23;;;17.52;;
64641;SDS011;59936;51.490;5.436;2022-11-14T00:26:02;25.23;;;17.58;;
64641;SDS011;59936;51.490;5.436;2022-11-14T00:31:04;33.80;;;17.98;;
64641;SDS011;59936;51.490;5.436;2022-11-14T00:36:07;25.38;;;17.85;;
64641;SDS011;59936;51.490;5.436;2022-11-14T00:41:09;24.27;;;16.70;;
64641;SDS011;59936;51.490;5.436;2022-11-14T00:46:12;31.43;;;16.07;;
64641;SDS011;59936;51.490;5.436;2022-11-14T00:51:15;24.15;;;16.23;;
64641;SDS011;59936;51.490;5.436;2022-11-14T00:56:17;28.15;;;16.23;;
64641;SDS011;59936;51.490;5.436;2022-11-14T01:01:19;25.08;;;16.55;;
64641;SDS011;59936;51.490;5.436;2022-11-14T01:06:22;24.05;;;14.27;;
64641;SDS011;59936;51.490;5.436;2022-11-14T01:11:24;20.48;;;13.18;;
64641;SDS011;59936;51.490;5.436;2022-11-14T01:16:25;21.23;;;13.47;;
64641;SDS011;59936;51.490;5.436;2022-11-14T01:21:28;20.13;;;13.63;;
64641;SDS011;59936;51.490;5.436;2022-11-14T01:26:30;17.65;;;12.80;;
64641;SDS011;59936;51.490;5.436;2022-11-14T01:31:32;19.67;;;12.73;;
64641;SDS011;59936;51.490;5.436;2022-11-14T01:36:35;22.00;;;13.57;;
64641;SDS011;59936;51.490;5.436;2022-11-14T01:41:36;19.23;;;12.70;;
64641;SDS011;59936;51.490;5.436;2022-11-14T01:46:39;19.07;;;12.47;;
64641;SDS011;59936;51.490;5.436;2022-11-14T01:51:47;19.80;;;12.35;;
64641;SDS011;59936;51.490;5.436;2022-11-14T01:56:59;18.40;;;11.90;;
64641;SDS011;59936;51.490;5.436;2022-11-14T02:02:05;21.80;;;12.88;;
64641;SDS011;59936;51.490;5.436;2022-11-14T02:07:18;21.40;;;12.02;;
64641;SDS011;59936;51.490;5.436;2022-11-14T02:12:20;17.30;;;11.13;;
64641;SDS011;59936;51.490;5.436;2022-11-14T02:17:24;21.10;;;13.05;;
64641;SDS011;59936;51.490;5.436;2022-11-14T02:22:28;20.08;;;13.07;;
64641;SDS011;59936;51.490;5.436;2022-11-14T02:27:30;21.20;;;13.00;;
64641;SDS011;59936;51.490;5.436;2022-11-14T02:32:33;20.88;;;12.40;;
64641;SDS011;59936;51.490;5.436;2022-11-14T02:37:37;22.70;;;11.60;;
64641;SDS011;59936;51.490;5.436;2022-11-14T02:42:39;22.30;;;12.00;;
64641;SDS011;59936;51.490;5.436;2022-11-14T02:47:41;18.00;;;11.90;;
64641;SDS011;59936;51.490;5.436;2022-11-14T02:52:44;16.53;;;11.33;;
64641;SDS011;59936;51.490;5.436;2022-11-14T02:57:46;19.88;;;11.45;;
64641;SDS011;59936;51.490;5.436;2022-11-14T03:02:47;17.77;;;12.10;;
64641;SDS011;59936;51.490;5.436;2022-11-14T03:07:52;21.37;;;12.80;;
64641;SDS011;59936;51.490;5.436;2022-11-14T03:12:55;17.55;;;11.13;;
64641;SDS011;59936;51.490;5.436;2022-11-14T03:23:01;18.20;;;10.35;;
64641;SDS011;59936;51.490;5.436;2022-11-14T03:28:03;19.38;;;10.75;;
64641;SDS011;59936;51.490;5.436;2022-11-14T03:33:05;16.52;;;10.95;;
64641;SDS011;59936;51.490;5.436;2022-11-14T03:38:08;17.80;;;11.20;;
64641;SDS011;59936;51.490;5.436;2022-11-14T03:43:10;17.13;;;11.05;;
64641;SDS011;59936;51.490;5.436;2022-11-14T03:48:11;18.27;;;11.40;;
64641;SDS011;59936;51.490;5.436;2022-11-14T03:53:15;19.45;;;10.27;;
64641;SDS011;59936;51.490;5.436;2022-11-14T03:58:18;19.23;;;10.90;;
64641;SDS011;59936;51.490;5.436;2022-11-14T04:03:19;15.18;;;10.57;;
64641;SDS011;59936;51.490;5.436;2022-11-14T04:08:22;19.47;;;11.90;;
64641;SDS011;59936;51.490;5.436;2022-11-14T04:13:24;15.50;;;10.45;;
64641;SDS011;59936;51.490;5.436;2022-11-14T04:18:26;17.08;;;10.77;;
64641;SDS011;59936;51.490;5.436;2022-11-14T04:23:29;19.33;;;11.85;;
64641;SDS011;59936;51.490;5.436;2022-11-14T04:28:31;17.58;;;10.32;;
64641;SDS011;59936;51.490;5.436;2022-11-14T04:33:33;15.50;;;10.53;;
64641;SDS011;59936;51.490;5.436;2022-11-14T04:38:37;17.57;;;10.60;;
64641;SDS011;59936;51.490;5.436;2022-11-14T04:43:39;16.17;;;10.90;;
64641;SDS011;59936;51.490;5.436;2022-11-14T04:48:40;19.27;;;11.53;;
64641;SDS011;59936;51.490;5.436;2022-11-14T04:53:43;21.20;;;11.17;;
64641;SDS011;59936;51.490;5.436;2022-11-14T04:58:45;17.80;;;10.57;;
64641;SDS011;59936;51.490;5.436;2022-11-14T05:03:47;21.30;;;10.20;;
64641;SDS011;59936;51.490;5.436;2022-11-14T05:08:50;16.47;;;10.20;;
64641;SDS011;59936;51.490;5.436;2022-11-14T05:13:53;16.73;;;10.65;;
64641;SDS011;59936;51.490;5.436;2022-11-14T05:18:54;17.92;;;11.32;;
64641;SDS011;59936;51.490;5.436;2022-11-14T05:23:57;23.17;;;11.70;;
64641;SDS011;59936;51.490;5.436;2022-11-14T05:28:59;17.52;;;10.85;;
64641;SDS011;59936;51.490;5.436;2022-11-14T05:34:02;15.93;;;10.43;;
64641;SDS011;59936;51.490;5.436;2022-11-14T05:39:05;18.98;;;11.00;;
64641;SDS011;59936;51.490;5.436;2022-11-14T05:44:07;15.65;;;10.68;;
64641;SDS011;59936;51.490;5.436;2022-11-14T05:49:08;17.83;;;11.03;;
64641;SDS011;59936;51.490;5.436;2022-11-14T05:54:11;19.90;;;10.83;;
64641;SDS011;59936;51.490;5.436;2022-11-14T05:59:13;16.38;;;10.10;;
64641;SDS011;59936;51.490;5.436;2022-11-14T06:04:16;17.63;;;10.53;;
64641;SDS011;59936;51.490;5.436;2022-11-14T06:09:19;18.20;;;10.32;;
64641;SDS011;59936;51.490;5.436;2022-11-14T06:14:21;20.00;;;11.68;;
64641;SDS011;59936;51.490;5.436;2022-11-14T06:19:23;19.30;;;12.40;;
64641;SDS011;59936;51.490;5.436;2022-11-14T06:24:26;17.13;;;10.37;;
64641;SDS011;59936;51.490;5.436;2022-11-14T06:29:28;18.85;;;11.07;;
64641;SDS011;59936;51.490;5.436;2022-11-14T06:34:31;19.67;;;11.47;;
64641;SDS011;59936;51.490;5.436;2022-11-14T06:39:34;18.15;;;10.75;;
64641;SDS011;59936;51.490;5.436;2022-11-14T06:44:37;16.95;;;11.02;;
64641;SDS011;59936;51.490;5.436;2022-11-14T06:49:38;21.60;;;12.43;;
64641;SDS011;59936;51.490;5.436;2022-11-14T06:54:42;20.43;;;11.17;;
64641;SDS011;59936;51.490;5.436;2022-11-14T06:59:44;17.40;;;11.02;;
64641;SDS011;59936;51.490;5.436;2022-11-14T07:04:48;22.80;;;11.77;;
64641;SDS011;59936;51.490;5.436;2022-11-14T07:09:51;22.40;;;11.98;;
64641;SDS011;59936;51.490;5.436;2022-11-14T07:14:53;21.98;;;11.02;;
64641;SDS011;59936;51.490;5.436;2022-11-14T07:19:55;19.47;;;11.50;;
64641;SDS011;59936;51.490;5.436;2022-11-14T07:24:58;18.23;;;11.97;;
64641;SDS011;59936;51.490;5.436;2022-11-14T07:29:59;19.85;;;10.98;;
64641;SDS011;59936;51.490;5.436;2022-11-14T07:35:01;24.27;;;12.37;;
64641;SDS011;59936;51.490;5.436;2022-11-14T07:40:05;20.67;;;12.00;;
64641;SDS011;59936;51.490;5.436;2022-11-14T07:45:08;17.98;;;10.98;;
64641;SDS011;59936;51.490;5.436;2022-11-14T07:50:11;20.02;;;11.70;;
64641;SDS011;59936;51.490;5.436;2022-11-14T07:55:14;17.27;;;11.90;;
64641;SDS011;59936;51.490;5.436;2022-11-14T08:00:16;20.67;;;11.90;;
64641;SDS011;59936;51.490;5.436;2022-11-14T08:05:18;21.08;;;12.25;;
64641;SDS011;59936;51.490;5.436;2022-11-14T08:10:22;21.45;;;12.85;;
64641;SDS011;59936;51.490;5.436;2022-11-14T08:15:23;21.85;;;12.93;;
64641;SDS011;59936;51.490;5.436;2022-11-14T08:20:26;23.13;;;12.25;;
64641;SDS011;59936;51.490;5.436;2022-11-14T08:25:30;24.42;;;15.15;;
64641;SDS011;59936;51.490;5.436;2022-11-14T08:30:31;27.55;;;13.88;;
64641;SDS011;59936;51.490;5.436;2022-11-14T08:35:33;22.57;;;14.53;;
64641;SDS011;59936;51.490;5.436;2022-11-14T08:40:36;19.13;;;13.80;;
64641;SDS011;59936;51.490;5.436;2022-11-14T08:45:38;19.45;;;12.70;;
64641;SDS011;59936;51.490;5.436;2022-11-14T08:50:39;18.30;;;11.80;;
64641;SDS011;59936;51.490;5.436;2022-11-14T08:55:43;19.30;;;13.07;;
64641;SDS011;59936;51.490;5.436;2022-11-14T09:00:47;14.23;;;10.57;;
64641;SDS011;59936;51.490;5.436;2022-11-14T09:05:50;18.77;;;12.52;;
64641;SDS011;59936;51.490;5.436;2022-11-14T09:10:55;17.58;;;13.15;;
64641;SDS011;59936;51.490;5.436;2022-11-14T09:16:00;16.70;;;11.98;;
64641;SDS011;59936;51.490;5.436;2022-11-14T09:21:04;13.90;;;10.48;;
64641;SDS011;59936;51.490;5.436;2022-11-14T09:26:09;11.88;;;9.60;;
64641;SDS011;59936;51.490;5.436;2022-11-14T09:31:11;11.30;;;9.27;;
64641;SDS011;59936;51.490;5.436;2022-11-14T09:36:14;11.48;;;9.18;;
64641;SDS011;59936;51.490;5.436;2022-11-14T09:41:31;12.43;;;9.45;;
64641;SDS011;59936;51.490;5.436;2022-11-14T09:46:53;11.70;;;9.63;;
64641;SDS011;59936;51.490;5.436;2022-11-14T09:52:02;11.15;;;8.05;;
64641;SDS011;59936;51.490;5.436;2022-11-14T09:57:17;9.48;;;8.10;;
64641;SDS011;59936;51.490;5.436;2022-11-14T10:02:26;10.38;;;8.77;;
64641;SDS011;59936;51.490;5.436;2022-11-14T10:07:46;14.20;;;9.60;;
64641;SDS011;59936;51.490;5.436;2022-11-14T10:13:11;11.23;;;9.20;;
64641;SDS011;59936;51.490;5.436;2022-11-14T10:18:34;10.93;;;9.20;;
64641;SDS011;59936;51.490;5.436;2022-11-14T10:23:51;13.40;;;8.35;;
64641;SDS011;59936;51.490;5.436;2022-11-14T10:29:10;11.45;;;9.18;;
64641;SDS011;59936;51.490;5.436;2022-11-14T10:34:43;11.40;;;9.77;;
64641;SDS011;59936;51.490;5.436;2022-11-14T10:39:53;14.68;;;9.60;;
64641;SDS011;59936;51.490;5.436;2022-11-14T10:45:15;12.32;;;10.25;;
64641;SDS011;59936;51.490;5.436;2022-11-14T10:50:26;16.67;;;11.20;;
64641;SDS011;59936;51.490;5.436;2022-11-14T10:55:48;13.38;;;11.13;;
64641;SDS011;59936;51.490;5.436;2022-11-14T11:00:52;13.73;;;11.02;;
64641;SDS011;59936;51.490;5.436;2022-11-14T11:05:54;12.52;;;9.98;;
64641;SDS011;59936;51.490;5.436;2022-11-14T11:10:57;14.50;;;10.63;;
64641;SDS011;59936;51.490;5.436;2022-11-14T11:16:20;14.95;;;11.20;;
64641;SDS011;59936;51.490;5.436;2022-11-14T11:21:24;15.07;;;11.77;;
64641;SDS011;59936;51.490;5.436;2022-11-14T11:26:26;16.02;;;11.65;;
64641;SDS011;59936;51.490;5.436;2022-11-14T11:31:49;14.48;;;12.55;;
64641;SDS011;59936;51.490;5.436;2022-11-14T11:36:54;16.13;;;13.02;;
64641;SDS011;59936;51.490;5.436;2022-11-14T11:42:05;15.75;;;12.57;;
64641;SDS011;59936;51.490;5.436;2022-11-14T11:47:16;15.60;;;13.15;;
64641;SDS011;59936;51.490;5.436;2022-11-14T11:52:25;14.73;;;12.57;;
64641;SDS011;59936;51.490;5.436;2022-11-14T11:57:34;17.73;;;13.32;;
64641;SDS011;59936;51.490;5.436;2022-11-14T12:02:45;18.88;;;13.07;;
64641;SDS011;59936;51.490;5.436;2022-11-14T12:07:53;19.25;;;14.35;;
64641;SDS011;59936;51.490;5.436;2022-11-14T12:13:11;21.75;;;15.18;;
64641;SDS011;59936;51.490;5.436;2022-11-14T12:19:03;22.13;;;17.25;;
64641;SDS011;59936;51.490;5.436;2022-11-14T12:30:40;27.92;;;16.67;;
64641;SDS011;59936;51.490;5.436;2022-11-14T12:35:54;22.75;;;15.93;;
64641;SDS011;59936;51.490;5.436;2022-11-14T12:41:00;23.60;;;16.48;;
64641;SDS011;59936;51.490;5.436;2022-11-14T12:46:03;26.70;;;17.63;;
64641;SDS011;59936;51.490;5.436;2022-11-14T12:56:58;24.92;;;15.73;;
64641;SDS011;59936;51.490;5.436;2022-11-14T13:08:33;26.35;;;17.00;;
64641;SDS011;59936;51.490;5.436;2022-11-14T13:14:18;21.63;;;16.50;;
64641;SDS011;59936;51.490;5.436;2022-11-14T13:19:43;20.55;;;16.25;;
64641;SDS011;59936;51.490;5.436;2022-11-14T13:25:15;21.60;;;16.15;;
64641;SDS011;59936;51.490;5.436;2022-11-14T13:36:05;20.55;;;15.10;;
64641;SDS011;59936;51.490;5.436;2022-11-14T13:41:19;19.73;;;14.23;;
64641;SDS011;59936;51.490;5.436;2022-11-14T13:46:57;17.88;;;11.45;;
64641;SDS011;59936;51.490;5.436;2022-11-14T13:52:19;13.13;;;10.23;;
64641;SDS011;59936;51.490;5.436;2022-11-14T13:57:37;10.30;;;8.63;;
64641;SDS011;59936;51.490;5.436;2022-11-14T14:08:42;10.57;;;8.63;;
64641;SDS011;59936;51.490;5.436;2022-11-14T14:14:11;9.98;;;8.15;;
64641;SDS011;59936;51.490;5.436;2022-11-14T14:19:37;13.23;;;9.85;;
64641;SDS011;59936;51.490;5.436;2022-11-14T14:24:59;14.50;;;10.95;;
64641;SDS011;59936;51.490;5.436;2022-11-14T14:30:17;15.05;;;10.93;;
64641;SDS011;59936;51.490;5.436;2022-11-14T14:35:21;8.85;;;7.22;;
64641;SDS011;59936;51.490;5.436;2022-11-14T14:40:27;15.35;;;10.57;;
64641;SDS011;59936;51.490;5.436;2022-11-14T14:45:36;17.05;;;11.70;;
64641;SDS011;59936;51.490;5.436;2022-11-14T14:50:50;18.75;;;12.60;;
64641;SDS011;59936;51.490;5.436;2022-11-14T14:55:55;17.90;;;12.90;;
64641;SDS011;59936;51.490;5.436;2022-11-14T15:01:02;19.55;;;11.90;;
64641;SDS011;59936;51.490;5.436;2022-11-14T15:06:17;18.48;;;12.02;;
64641;SDS011;59936;51.490;5.436;2022-11-14T15:11:31;18.77;;;12.18;;
64641;SDS011;59936;51.490;5.436;2022-11-14T15:16:35;17.63;;;11.13;;
64641;SDS011;59936;51.490;5.436;2022-11-14T15:21:38;16.00;;;10.90;;
64641;SDS011;59936;51.490;5.436;2022-11-14T15:26:41;17.67;;;11.77;;
64641;SDS011;59936;51.490;5.436;2022-11-14T15:31:48;20.00;;;13.13;;
64641;SDS011;59936;51.490;5.436;2022-11-14T15:37:07;23.33;;;12.95;;
64641;SDS011;59936;51.490;5.436;2022-11-14T15:42:25;18.63;;;11.23;;
64641;SDS011;59936;51.490;5.436;2022-11-14T15:47:33;18.55;;;10.85;;
64641;SDS011;59936;51.490;5.436;2022-11-14T15:52:45;16.02;;;10.13;;
64641;SDS011;59936;51.490;5.436;2022-11-14T15:57:51;13.20;;;10.23;;
64641;SDS011;59936;51.490;5.436;2022-11-14T16:02:56;16.23;;;8.63;;
64641;SDS011;59936;51.490;5.436;2022-11-14T16:07:58;12.60;;;8.98;;
64641;SDS011;59936;51.490;5.436;2022-11-14T16:13:00;11.07;;;7.82;;
64641;SDS011;59936;51.490;5.436;2022-11-14T16:18:05;10.75;;;6.93;;
64641;SDS011;59936;51.490;5.436;2022-11-14T16:23:09;11.80;;;7.57;;
64641;SDS011;59936;51.490;5.436;2022-11-14T16:28:13;8.43;;;5.57;;
64641;SDS011;59936;51.490;5.436;2022-11-14T16:33:17;10.53;;;7.13;;
64641;SDS011;59936;51.490;5.436;2022-11-14T16:38:19;10.68;;;7.45;;
64641;SDS011;59936;51.490;5.436;2022-11-14T16:43:22;9.53;;;7.60;;
64641;SDS011;59936;51.490;5.436;2022-11-14T16:48:25;13.27;;;8.40;;
64641;SDS011;59936;51.490;5.436;2022-11-14T16:53:28;13.35;;;8.18;;
64641;SDS011;59936;51.490;5.436;2022-11-14T16:58:30;11.90;;;8.70;;
64641;SDS011;59936;51.490;5.436;2022-11-14T17:03:34;13.50;;;8.77;;
64641;SDS011;59936;51.490;5.436;2022-11-14T17:08:36;14.88;;;9.88;;
64641;SDS011;59936;51.490;5.436;2022-11-14T17:13:38;10.98;;;8.15;;
64641;SDS011;59936;51.490;5.436;2022-11-14T17:18:41;13.70;;;8.03;;
64641;SDS011;59936;51.490;5.436;2022-11-14T17:23:44;12.15;;;8.85;;
64641;SDS011;59936;51.490;5.436;2022-11-14T17:28:46;13.25;;;9.32;;
64641;SDS011;59936;51.490;5.436;2022-11-14T17:33:53;14.87;;;9.97;;
64641;SDS011;59936;51.490;5.436;2022-11-14T17:38:56;12.70;;;9.02;;
64641;SDS011;59936;51.490;5.436;2022-11-14T17:43:58;14.88;;;9.73;;
64641;SDS011;59936;51.490;5.436;2022-11-14T17:49:04;15.02;;;9.45;;
64641;SDS011;59936;51.490;5.436;2022-11-14T17:54:06;26.45;;;14.32;;
64641;SDS011;59936;51.490;5.436;2022-11-14T17:59:09;18.05;;;11.82;;
64641;SDS011;59936;51.490;5.436;2022-11-14T18:04:12;21.33;;;12.40;;
64641;SDS011;59936;51.490;5.436;2022-11-14T18:09:15;17.42;;;11.05;;
64641;SDS011;59936;51.490;5.436;2022-11-14T18:14:16;17.00;;;10.60;;
64641;SDS011;59936;51.490;5.436;2022-11-14T18:19:20;15.40;;;10.20;;
64641;SDS011;59936;51.490;5.436;2022-11-14T18:24:22;14.32;;;9.32;;
64641;SDS011;59936;51.490;5.436;2022-11-14T18:29:24;14.30;;;8.50;;
64641;SDS011;59936;51.490;5.436;2022-11-14T18:34:28;16.00;;;9.27;;
64641;SDS011;59936;51.490;5.436;2022-11-14T18:39:30;16.48;;;10.55;;
64641;SDS011;59936;51.490;5.436;2022-11-14T18:44:32;17.67;;;9.65;;
64641;SDS011;59936;51.490;5.436;2022-11-14T18:49:35;16.50;;;10.47;;
64641;SDS011;59936;51.490;5.436;2022-11-14T18:54:38;23.25;;;13.10;;
64641;SDS011;59936;51.490;5.436;2022-11-14T18:59:40;24.80;;;15.35;;
64641;SDS011;59936;51.490;5.436;2022-11-14T19:04:44;25.63;;;13.60;;
64641;SDS011;59936;51.490;5.436;2022-11-14T19:09:46;20.05;;;12.40;;
64641;SDS011;59936;51.490;5.436;2022-11-14T19:14:47;18.93;;;12.90;;
64641;SDS011;59936;51.490;5.436;2022-11-14T19:19:52;19.77;;;12.23;;
64641;SDS011;59936;51.490;5.436;2022-11-14T19:24:55;25.75;;;15.68;;
64641;SDS011;59936;51.490;5.436;2022-11-14T19:29:58;24.98;;;15.02;;
64641;SDS011;59936;51.490;5.436;2022-11-14T19:35:04;17.10;;;11.60;;
64641;SDS011;59936;51.490;5.436;2022-11-14T19:40:07;19.83;;;11.65;;
64641;SDS011;59936;51.490;5.436;2022-11-14T19:45:10;32.67;;;14.73;;
64641;SDS011;59936;51.490;5.436;2022-11-14T19:50:14;19.90;;;12.47;;
64641;SDS011;59936;51.490;5.436;2022-11-14T19:55:16;17.15;;;11.30;;
64641;SDS011;59936;51.490;5.436;2022-11-14T20:00:19;19.33;;;12.77;;
64641;SDS011;59936;51.490;5.436;2022-11-14T20:05:26;15.95;;;9.60;;
64641;SDS011;59936;51.490;5.436;2022-11-14T20:10:27;19.20;;;12.70;;
64641;SDS011;59936;51.490;5.436;2022-11-14T20:15:29;15.73;;;10.77;;
64641;SDS011;59936;51.490;5.436;2022-11-14T20:20:33;17.93;;;12.10;;
64641;SDS011;59936;51.490;5.436;2022-11-14T20:25:35;18.00;;;10.77;;
64641;SDS011;59936;51.490;5.436;2022-11-14T20:30:37;19.05;;;12.50;;
64641;SDS011;59936;51.490;5.436;2022-11-14T20:40:42;18.20;;;11.50;;
64641;SDS011;59936;51.490;5.436;2022-11-14T20:45:52;20.77;;;12.67;;
64641;SDS011;59936;51.490;5.436;2022-11-14T20:51:01;21.93;;;12.53;;
64641;SDS011;59936;51.490;5.436;2022-11-14T20:56:04;20.75;;;13.30;;
64641;SDS011;59936;51.490;5.436;2022-11-14T21:01:06;22.70;;;14.63;;
64641;SDS011;59936;51.490;5.436;2022-11-14T21:06:10;20.45;;;12.63;;
64641;SDS011;59936;51.490;5.436;2022-11-14T21:11:14;24.75;;;14.55;;
64641;SDS011;59936;51.490;5.436;2022-11-14T21:16:17;18.95;;;12.45;;
64641;SDS011;59936;51.490;5.436;2022-11-14T21:21:21;19.73;;;13.43;;
64641;SDS011;59936;51.490;5.436;2022-11-14T21:26:28;21.48;;;13.30;;
64641;SDS011;59936;51.490;5.436;2022-11-14T21:31:33;19.67;;;13.18;;
64641;SDS011;59936;51.490;5.436;2022-11-14T21:36:40;22.52;;;13.70;;
64641;SDS011;59936;51.490;5.436;2022-11-14T21:41:42;21.27;;;12.88;;
64641;SDS011;59936;51.490;5.436;2022-11-14T21:46:48;22.80;;;12.93;;
64641;SDS011;59936;51.490;5.436;2022-11-14T21:51:51;20.77;;;12.18;;
64641;SDS011;59936;51.490;5.436;2022-11-14T21:56:54;21.83;;;12.45;;
64641;SDS011;59936;51.490;5.436;2022-11-14T22:01:55;22.00;;;14.15;;
64641;SDS011;59936;51.490;5.436;2022-11-14T22:07:15;21.85;;;14.60;;
64641;SDS011;59936;51.490;5.436;2022-11-14T22:12:17;25.00;;;15.15;;
64641;SDS011;59936;51.490;5.436;2022-11-14T22:17:20;23.73;;;13.90;;
64641;SDS011;59936;51.490;5.436;2022-11-14T22:22:23;27.88;;;15.75;;
64641;SDS011;59936;51.490;5.436;2022-11-14T22:27:25;23.88;;;14.65;;
64641;SDS011;59936;51.490;5.436;2022-11-14T22:32:27;18.23;;;10.77;;
64641;SDS011;59936;51.490;5.436;2022-11-14T22:37:30;28.83;;;15.83;;
64641;SDS011;59936;51.490;5.436;2022-11-14T22:42:33;26.33;;;14.57;;
64641;SDS011;59936;51.490;5.436;2022-11-14T22:47:35;30.35;;;15.90;;
64641;SDS011;59936;51.490;5.436;2022-11-14T22:52:38;25.27;;;14.68;;
64641;SDS011;59936;51.490;5.436;2022-11-14T22:57:43;27.85;;;13.88;;
64641;SDS011;59936;51.490;5.436;2022-11-14T23:02:44;22.38;;;13.43;;
64641;SDS011;59936;51.490;5.436;2022-11-14T23:07:49;26.53;;;14.87;;
64641;SDS011;59936;51.490;5.436;2022-11-14T23:12:50;27.13;;;15.40;;
64641;SDS011;59936;51.490;5.436;2022-11-14T23:17:53;24.88;;;14.43;;
64641;SDS011;59936;51.490;5.436;2022-11-14T23:22:56;27.02;;;15.27;;
64641;SDS011;59936;51.490;5.436;2022-11-14T23:27:59;30.45;;;15.70;;
64641;SDS011;59936;51.490;5.436;2022-11-14T23:33:00;30.30;;;16.73;;
64641;SDS011;59936;51.490;5.436;2022-11-14T23:38:03;31.13;;;16.58;;
64641;SDS011;59936;51.490;5.436;2022-11-14T23:43:05;27.42;;;16.83;;
64641;SDS011;59936;51.490;5.436;2022-11-14T23:48:07;23.98;;;14.25;;
64641;SDS011;59936;51.490;5.436;2022-11-14T23:53:11;27.60;;;16.35;;
64641;SDS011;59936;51.490;5.436;2022-11-14T23:58:13;31.42;;;16.70;;
